Iver Agile — IBHW — position and weather

sailwx.info

Track history (hours):
 
Tides and Currents Weather Stations Pressure Air Temp Water Temp Dewpoint Dewpoint Depression Visibility Wind Speed Wind Dir Waves Ship Positions

Iver Agile

Last reported at 2015-May-27 06:22 UTC. Time now 2015-May-28 18:16 UTC.
Position N 31°12' E 029°44'.

Length 110 m; draft 6.6 m.

Type: Tanker. MMSI: 247103700.

Date/timePositionNaut miles runAvg speedWind from/ knotsBaromVisibWave heightAir tempDewpointWater temp
2015-May-27 06:22N 31°12' E 029°44'0 0.0
2015-May-27 04:16N 31°12' E 029°44'0 0.0
2015-May-27 02:25N 31°12' E 029°44'0 0.0
2015-May-27 00:25N 31°12' E 029°44'0 0.0
2015-May-26 23:31N 31°12' E 029°44'0 0.0
2015-May-26 20:31N 31°12' E 029°44'0 0.0
2015-May-26 19:13N 31°12' E 029°44'0 0.0
2015-May-26 18:31N 31°12' E 029°44'0 0.1
2015-May-26 17:25N 31°12' E 029°44'0 0.0
2015-May-26 15:16N 31°12' E 029°44'0 0.0
2015-May-26 14:31N 31°12' E 029°44'0 0.0
2015-May-26 13:28N 31°12' E 029°44'0 0.0
2015-May-26 12:13N 31°12' E 029°44'0 0.0
2015-May-26 11:31N 31°12' E 029°44'0 0.1
2015-May-26 10:17N 31°12' E 029°44'6 7.3
2015-May-26 09:27N 31°15' E 029°38'1011.6
2015-May-26 08:33N 31°24' E 029°31'2411.6
2015-May-26 06:31N 31°44' E 029°17'3711.5
2015-May-26 03:20N 32°16' E 028°55'29211.8
2015-May-25 02:33N 36°04' E 025°14'1211.8
2015-May-25 01:33N 36°10' E 025°02'1211.9
2015-May-25 00:32N 36°17' E 024°49'6811.3
2015-May-24 18:30N 37°10' E 023°56'1112.1
2015-May-24 17:33N 37°21' E 023°52'1212.2
2015-May-24 16:33N 37°32' E 023°46'1212.3
2015-May-24 15:33N 37°44' E 023°40'1212.0
2015-May-24 14:33N 37°55' E 023°36'8 7.2
2015-May-24 13:29N 38°02' E 023°31'0 0.0
2015-May-24 12:23N 38°02' E 023°31'0 0.0
2015-May-24 11:32N 38°02' E 023°31'0 0.0
2015-May-24 10:32N 38°02' E 023°31'1 0.7
2015-May-24 09:34N 38°02' E 023°30'0 0.4
2015-May-24 08:33N 38°02' E 023°30'0 0.0
2015-May-24 07:33N 38°02' E 023°30'0 0.0
2015-May-24 06:30N 38°02' E 023°30'0 0.0
2015-May-24 05:33N 38°02' E 023°30'0 0.0
2015-May-23 21:18N 38°02' E 023°30'0 0.0
2015-May-23 20:30N 38°02' E 023°30'0 0.0
2015-May-23 18:24N 38°02' E 023°30'0 0.0
2015-May-23 17:30N 38°02' E 023°30'0 0.0
2015-May-23 16:24N 38°02' E 023°30'0 0.0
2015-May-23 15:30N 38°02' E 023°30'0 0.0
2015-May-23 14:33N 38°02' E 023°31'0 0.0
2015-May-23 13:24N 38°02' E 023°30'0 0.0
2015-May-23 12:24N 38°02' E 023°30'0 0.0
2015-May-23 11:33N 38°02' E 023°30'0 0.0
2015-May-23 10:27N 38°02' E 023°30'0 0.0
2015-May-23 09:33N 38°02' E 023°30'0 0.0
2015-May-23 08:33N 38°02' E 023°30'0 0.0
2015-May-23 07:30N 38°02' E 023°30'0 0.0
2015-May-23 06:30N 38°02' E 023°30'0 0.0
2015-May-23 05:27N 38°02' E 023°30'0 0.0
2015-May-23 04:30N 38°02' E 023°30'0 0.0
2015-May-23 03:33N 38°02' E 023°30'0 0.0
2015-May-23 02:33N 38°02' E 023°30'0 0.0
2015-May-23 01:33N 38°02' E 023°30'0 0.0
2015-May-23 00:27N 38°02' E 023°30'0 0.0
2015-May-22 23:30N 38°02' E 023°30'0 0.0
2015-May-22 22:33N 38°02' E 023°30'0 0.4
2015-May-22 21:33N 38°02' E 023°30'1 1.2
2015-May-22 20:33N 38°01' E 023°32'0 0.0
2015-May-22 19:33N 38°01' E 023°32'0 0.0
2015-May-22 18:33N 38°01' E 023°32'0 0.0
2015-May-22 17:33N 38°01' E 023°32'0 0.1
2015-May-22 16:33N 38°01' E 023°32'0 0.0
2015-May-22 15:30N 38°01' E 023°32'0 0.0
2015-May-22 14:27N 38°01' E 023°32'0 0.0
2015-May-22 13:33N 38°01' E 023°32'0 0.0
2015-May-22 12:33N 38°01' E 023°32'0 0.0
2015-May-22 10:33N 38°01' E 023°32'0 0.0
2015-May-22 09:30N 38°01' E 023°32'0 0.1
2015-May-22 08:33N 38°01' E 023°32'1 1.0
2015-May-22 07:33N 38°00' E 023°33'6 6.5
2015-May-22 06:33N 37°55' E 023°37'1 0.8
2015-May-22 05:33N 37°54' E 023°37'0 0.0
2015-May-22 04:33N 37°54' E 023°37'3 2.9
2015-May-22 03:33N 37°52' E 023°39'1010.4
2015-May-22 02:33N 37°42' E 023°44'1211.8
2015-May-22 01:33N 37°31' E 023°50'1611.9
2015-May-22 00:14N 37°16' E 023°56'812.1
2015-May-21 23:33N 37°09' E 023°60'1212.2
2015-May-21 22:33N 36°57' E 024°05'1312.1
2015-May-21 21:29N 36°45' E 024°11'1410.9
2015-May-21 20:11N 36°35' E 024°23'19 1.7
2015-May-21 09:27N 36°21' E 024°39'1111.9
2015-May-21 08:33N 36°15' E 024°50'1211.8
2015-May-21 07:33N 36°08' E 025°02'1211.8
2015-May-21 06:33N 36°02' E 025°14'1211.6
2015-May-21 05:30N 35°55' E 025°26'1111.2
2015-May-21 04:33N 35°48' E 025°37'  
2015-May-17 12:33N 31°10' E 029°47'4 3.5
2015-May-17 11:33N 31°12' E 029°43'  
Track history (hours):
 
Tides and Currents Weather Stations Pressure Air Temp Water Temp Dewpoint Dewpoint Depression Visibility Wind Speed Wind Dir Waves Ship Positions

Iver Agile

Last reported at 2015-May-27 06:22 UTC. Time now 2015-May-28 18:16 UTC.
Position N 31°12' E 029°44'.

Length 110 m; draft 6.6 m.

Type: Tanker. MMSI: 247103700.

Date/timePositionNaut miles runAvg speedWind from/ knotsBaromVisibWave heightAir tempDewpointWater temp
2015-May-27 06:22N 31°12' E 029°44'0 0.0
2015-May-27 04:16N 31°12' E 029°44'0 0.0
2015-May-27 02:25N 31°12' E 029°44'0 0.0
2015-May-27 00:25N 31°12' E 029°44'0 0.0
2015-May-26 23:31N 31°12' E 029°44'0 0.0
2015-May-26 20:31N 31°12' E 029°44'0 0.0
2015-May-26 19:13N 31°12' E 029°44'0 0.0
2015-May-26 18:31N 31°12' E 029°44'0 0.1
2015-May-26 17:25N 31°12' E 029°44'0 0.0
2015-May-26 15:16N 31°12' E 029°44'0 0.0
2015-May-26 14:31N 31°12' E 029°44'0 0.0
2015-May-26 13:28N 31°12' E 029°44'0 0.0
2015-May-26 12:13N 31°12' E 029°44'0 0.0
2015-May-26 11:31N 31°12' E 029°44'0 0.1
2015-May-26 10:17N 31°12' E 029°44'6 7.3
2015-May-26 09:27N 31°15' E 029°38'1011.6
2015-May-26 08:33N 31°24' E 029°31'2411.6
2015-May-26 06:31N 31°44' E 029°17'3711.5
2015-May-26 03:20N 32°16' E 028°55'29211.8
2015-May-25 02:33N 36°04' E 025°14'1211.8
2015-May-25 01:33N 36°10' E 025°02'1211.9
2015-May-25 00:32N 36°17' E 024°49'6811.3
2015-May-24 18:30N 37°10' E 023°56'1112.1
2015-May-24 17:33N 37°21' E 023°52'1212.2
2015-May-24 16:33N 37°32' E 023°46'1212.3
2015-May-24 15:33N 37°44' E 023°40'1212.0
2015-May-24 14:33N 37°55' E 023°36'8 7.2
2015-May-24 13:29N 38°02' E 023°31'0 0.0
2015-May-24 12:23N 38°02' E 023°31'0 0.0
2015-May-24 11:32N 38°02' E 023°31'0 0.0
2015-May-24 10:32N 38°02' E 023°31'1 0.7
2015-May-24 09:34N 38°02' E 023°30'0 0.4
2015-May-24 08:33N 38°02' E 023°30'0 0.0
2015-May-24 07:33N 38°02' E 023°30'0 0.0
2015-May-24 06:30N 38°02' E 023°30'0 0.0
2015-May-24 05:33N 38°02' E 023°30'0 0.0
2015-May-23 21:18N 38°02' E 023°30'0 0.0
2015-May-23 20:30N 38°02' E 023°30'0 0.0
2015-May-23 18:24N 38°02' E 023°30'0 0.0
2015-May-23 17:30N 38°02' E 023°30'0 0.0
2015-May-23 16:24N 38°02' E 023°30'0 0.0
2015-May-23 15:30N 38°02' E 023°30'0 0.0
2015-May-23 14:33N 38°02' E 023°31'0 0.0
2015-May-23 13:24N 38°02' E 023°30'0 0.0
2015-May-23 12:24N 38°02' E 023°30'0 0.0
2015-May-23 11:33N 38°02' E 023°30'0 0.0
2015-May-23 10:27N 38°02' E 023°30'0 0.0
2015-May-23 09:33N 38°02' E 023°30'0 0.0
2015-May-23 08:33N 38°02' E 023°30'0 0.0
2015-May-23 07:30N 38°02' E 023°30'0 0.0
2015-May-23 06:30N 38°02' E 023°30'0 0.0
2015-May-23 05:27N 38°02' E 023°30'0 0.0
2015-May-23 04:30N 38°02' E 023°30'0 0.0
2015-May-23 03:33N 38°02' E 023°30'0 0.0
2015-May-23 02:33N 38°02' E 023°30'0 0.0
2015-May-23 01:33N 38°02' E 023°30'0 0.0
2015-May-23 00:27N 38°02' E 023°30'0 0.0
2015-May-22 23:30N 38°02' E 023°30'0 0.0
2015-May-22 22:33N 38°02' E 023°30'0 0.4
2015-May-22 21:33N 38°02' E 023°30'1 1.2
2015-May-22 20:33N 38°01' E 023°32'0 0.0
2015-May-22 19:33N 38°01' E 023°32'0 0.0
2015-May-22 18:33N 38°01' E 023°32'0 0.0
2015-May-22 17:33N 38°01' E 023°32'0 0.1
2015-May-22 16:33N 38°01' E 023°32'0 0.0
2015-May-22 15:30N 38°01' E 023°32'0 0.0
2015-May-22 14:27N 38°01' E 023°32'0 0.0
2015-May-22 13:33N 38°01' E 023°32'0 0.0
2015-May-22 12:33N 38°01' E 023°32'0 0.0
2015-May-22 10:33N 38°01' E 023°32'0 0.0
2015-May-22 09:30N 38°01' E 023°32'0 0.1
2015-May-22 08:33N 38°01' E 023°32'1 1.0
2015-May-22 07:33N 38°00' E 023°33'6 6.5
2015-May-22 06:33N 37°55' E 023°37'1 0.8
2015-May-22 05:33N 37°54' E 023°37'0 0.0
2015-May-22 04:33N 37°54' E 023°37'3 2.9
2015-May-22 03:33N 37°52' E 023°39'1010.4
2015-May-22 02:33N 37°42' E 023°44'1211.8
2015-May-22 01:33N 37°31' E 023°50'1611.9
2015-May-22 00:14N 37°16' E 023°56'812.1
2015-May-21 23:33N 37°09' E 023°60'1212.2
2015-May-21 22:33N 36°57' E 024°05'1312.1
2015-May-21 21:29N 36°45' E 024°11'1410.9
2015-May-21 20:11N 36°35' E 024°23'19 1.7
2015-May-21 09:27N 36°21' E 024°39'1111.9
2015-May-21 08:33N 36°15' E 024°50'1211.8
2015-May-21 07:33N 36°08' E 025°02'1211.8
2015-May-21 06:33N 36°02' E 025°14'1211.6
2015-May-21 05:30N 35°55' E 025°26'1111.2
2015-May-21 04:33N 35°48' E 025°37'  
2015-May-17 12:33N 31°10' E 029°47'4 3.5
2015-May-17 11:33N 31°12' E 029°43'  

Dump ship's entire track history